Capitol Logistics 619


KMIA
Miami International Airport
Miami, Florida, US
MROC
Juan Santamar?a International Airport
San Jose, , CR

Activity Log

Date Flight Route Aircraft Duration
08/28/2020 CPX619 MNATE2 MNATE Y442 FUNDI UZ465 ALVEK UM328 SELEK UZ403 PIRAS BARRA1P B763 2h 37m
06/21/2019 CPX719 MNATE2 MNATE Y442 FUNDI UZ465 ALVEK UM328 SELEK UZ403 PIRAS BARRA1P B763 2h 20m

Route Details

Aircraft Information
Primary: Boeing 767-300BDSF
Backup: Not Available
Route Data
Distance: 976nm
Sched. Duration: 2h 20m
Avg. Duration: 2h 29m (+8m)
Times Flown: 2
Recm'd Route: MNATE2 MNATE Y442 FUNDI UZ465 ALVEK UM328 SELEK UZ403 PIRAS BARRA1P
Planned Altitude: 35,000ft
Origin Wx: KMIA 221953Z 10014KT 10SM FEW027 SCT080 BKN130 OVC170 28/23 A2992 RMK AO2 RAB08E20 SLP132 P0000 T02780228
Dest. Wx: MROC 222000Z 256006KT 9999 SCT013TCU SCT025 BKN080 25/22 A2995 NOSIG
Notes:

Financial History
Total Freight: 201,874lbs
Average Load: 100,937lbs/flt
Fuel Used: 45,669lbs
Avg. Fuel Used: 22,835lbs/flt
Fuel Expense: $56,173
Avg. Fuel Expense: $28,086
Avg. Fuel Cost: $1.23/lbs
Total Gross Income: $386,068
Pilot Pay: $388
Total Expenses: $41,799
Total Revenue: $286,968
Average Revenue: $193,034.09